Farmington Falls, ME (04940)

7:17 AM EDT on September 02, 2015 (GMT -0400)
MAYO HILL | | Change Station
CLOSE
Current Station
Personal Weather Station
Location: Wilton, ME
Elevation: 995 ft
Nearby Weather Stations

Elev 995 ft 44.64 °N, 70.23 °W | Updated 14 seconds ago

Partly Cloudy
Partly Cloudy
66.4 °F
Feels Like 66.4 °F
N
0.0
Wind Variable Wind from NW
Gusts 0.0 mph

Today
High -- | Low -- °F
--% Chance of Precip.
Yesterday
High -- | Low -- °F
Precip. -- in
6:03 AM 7:15 PM
Waning Gibbous, 81% visible
Pressure 29.96 in
Visibility 5.0 miles
Clouds Overcast 200 ft
Dew Point 61 °F
Humidity 84%
Rainfall 0.00 in
Snow Depth Not available.
UV 0 out of 12
Pollen 7.30 out of 12
Air Quality Not available.
Flu Activity Not available.
METAR KWVL 021115Z AUTO 21003KT 5SM OVC002 14/12 A2996 RMK AO1
Pressure 29.96 in
Visibility 5.0 miles
Clouds Overcast 200 ft
Dew Point 61 °F
Humidity 84%
Rainfall 0.00 in
Snow Depth Not available.
UV 0 out of 12
Pollen 7.30 out of 12
Air Quality Not available.
Flu Activity Not available.
METAR KWVL 021115Z AUTO 21003KT 5SM OVC002 14/12 A2996 RMK AO1

10-Day Weather Forecast

×

Almanac

Astronomy

Sep. 02, 2015 Rise Set
Actual Time
Civil Twilight
Nautical Twilight
Astronomical Twilight
Moon
Length of Visible Light
Length of Day
Tomorrow will be .
, % of the Moon is Illuminated

Today's Extremes

State Highs State Lows

Community

WunderPhotos

Upload Photos

1,851,736 photos uploaded!

WunderBlogs® & News

Nearby

Air Quality

  Air Quality AQ Index Pollutant
Not available.

Snow Depth

Station Depth Elevation

Earthquake Activity

City Distance Mag. Time & Date
Minimum magnitude displayed is 2.5.

Coastal Water Temperatures

Place Temperature

Stations

Nearby Weather Stations

Station Location Temp. Windchill Dew Point Humidity Wind Precip. Elev Updated Type